sensor_id;sensor_type;location;lat;lon;timestamp;pressure;altitude;pressure_sealevel;temperature;humidity
10464;BME280;5279;42.048;24.638;2023-03-04T00:01:55;97559.81;;;6.68;100.00
10464;BME280;5279;42.048;24.638;2023-03-04T00:04:22;97555.25;;;6.70;100.00
10464;BME280;5279;42.048;24.638;2023-03-04T00:06:49;97553.34;;;6.72;100.00
10464;BME280;5279;42.048;24.638;2023-03-04T00:09:15;97548.66;;;6.75;100.00
10464;BME280;5279;42.048;24.638;2023-03-04T00:11:42;97554.50;;;6.79;100.00
10464;BME280;5279;42.048;24.638;2023-03-04T00:14:10;97543.72;;;6.82;100.00
10464;BME280;5279;42.048;24.638;2023-03-04T00:16:38;97549.84;;;6.82;100.00
10464;BME280;5279;42.048;24.638;2023-03-04T00:19:05;97554.25;;;6.82;100.00
10464;BME280;5279;42.048;24.638;2023-03-04T00:21:32;97544.97;;;6.78;100.00
10464;BME280;5279;42.048;24.638;2023-03-04T00:23:59;97542.56;;;6.75;100.00
10464;BME280;5279;42.048;24.638;2023-03-04T00:26:26;97544.22;;;6.76;100.00
10464;BME280;5279;42.048;24.638;2023-03-04T00:28:53;97547.59;;;6.78;100.00
10464;BME280;5279;42.048;24.638;2023-03-04T00:31:21;97549.25;;;6.79;100.00
10464;BME280;5279;42.048;24.638;2023-03-04T00:33:48;97552.84;;;6.78;100.00
10464;BME280;5279;42.048;24.638;2023-03-04T00:36:15;97553.34;;;6.72;100.00
10464;BME280;5279;42.048;24.638;2023-03-04T00:38:42;97548.81;;;6.40;100.00
10464;BME280;5279;42.048;24.638;2023-03-04T00:41:09;97549.41;;;6.22;100.00
10464;BME280;5279;42.048;24.638;2023-03-04T00:43:35;97549.63;;;6.30;100.00
10464;BME280;5279;42.048;24.638;2023-03-04T00:46:02;97553.34;;;6.38;100.00
10464;BME280;5279;42.048;24.638;2023-03-04T00:48:31;97557.19;;;6.45;100.00
10464;BME280;5279;42.048;24.638;2023-03-04T00:50:57;97551.44;;;6.51;100.00
10464;BME280;5279;42.048;24.638;2023-03-04T00:53:24;97558.63;;;6.49;100.00
10464;BME280;5279;42.048;24.638;2023-03-04T00:55:51;97560.75;;;6.44;100.00
10464;BME280;5279;42.048;24.638;2023-03-04T00:58:18;97560.75;;;6.44;100.00
10464;BME280;5279;42.048;24.638;2023-03-04T01:00:45;97560.53;;;6.36;100.00
10464;BME280;5279;42.048;24.638;2023-03-04T01:03:12;97555.72;;;6.41;100.00
10464;BME280;5279;42.048;24.638;2023-03-04T01:05:40;97558.25;;;6.43;100.00
10464;BME280;5279;42.048;24.638;2023-03-04T01:08:07;97551.22;;;6.43;100.00
10464;BME280;5279;42.048;24.638;2023-03-04T01:10:34;97550.03;;;6.47;100.00
10464;BME280;5279;42.048;24.638;2023-03-04T01:13:04;97556.44;;;6.54;100.00
10464;BME280;5279;42.048;24.638;2023-03-04T01:15:30;97549.53;;;6.53;100.00
10464;BME280;5279;42.048;24.638;2023-03-04T01:17:57;97549.06;;;6.59;100.00
10464;BME280;5279;42.048;24.638;2023-03-04T01:20:24;97547.63;;;6.55;100.00
10464;BME280;5279;42.048;24.638;2023-03-04T01:22:52;97542.00;;;6.49;100.00
10464;BME280;5279;42.048;24.638;2023-03-04T01:25:19;97546.66;;;6.45;100.00
10464;BME280;5279;42.048;24.638;2023-03-04T01:27:46;97543.78;;;6.37;100.00
10464;BME280;5279;42.048;24.638;2023-03-04T01:30:13;97547.03;;;6.08;100.00
10464;BME280;5279;42.048;24.638;2023-03-04T01:32:40;97539.69;;;6.00;100.00
10464;BME280;5279;42.048;24.638;2023-03-04T01:35:09;97541.38;;;6.12;100.00
10464;BME280;5279;42.048;24.638;2023-03-04T01:37:36;97544.25;;;6.20;100.00
10464;BME280;5279;42.048;24.638;2023-03-04T01:40:05;97538.50;;;6.26;100.00
10464;BME280;5279;42.048;24.638;2023-03-04T01:42:33;97526.06;;;6.17;100.00
10464;BME280;5279;42.048;24.638;2023-03-04T01:45:01;97532.88;;;6.09;100.00
10464;BME280;5279;42.048;24.638;2023-03-04T01:47:30;97537.56;;;6.16;100.00
10464;BME280;5279;42.048;24.638;2023-03-04T01:50:00;97532.31;;;6.27;100.00
10464;BME280;5279;42.048;24.638;2023-03-04T01:52:28;97523.31;;;6.30;100.00
10464;BME280;5279;42.048;24.638;2023-03-04T01:54:56;97517.00;;;6.21;100.00
10464;BME280;5279;42.048;24.638;2023-03-04T01:57:25;97519.63;;;6.10;100.00
10464;BME280;5279;42.048;24.638;2023-03-04T02:00:18;97536.97;;;6.13;100.00
10464;BME280;5279;42.048;24.638;2023-03-04T02:02:45;97528.25;;;6.01;100.00
10464;BME280;5279;42.048;24.638;2023-03-04T02:05:13;97524.28;;;6.07;100.00
10464;BME280;5279;42.048;24.638;2023-03-04T02:07:41;97524.66;;;6.13;100.00
10464;BME280;5279;42.048;24.638;2023-03-04T02:10:09;97526.31;;;6.14;100.00
10464;BME280;5279;42.048;24.638;2023-03-04T02:12:39;97524.78;;;6.23;100.00
10464;BME280;5279;42.048;24.638;2023-03-04T02:15:07;97528.50;;;6.31;100.00
10464;BME280;5279;42.048;24.638;2023-03-04T02:17:34;97523.22;;;6.31;100.00
10464;BME280;5279;42.048;24.638;2023-03-04T02:20:06;97514.84;;;6.26;100.00
10464;BME280;5279;42.048;24.638;2023-03-04T02:22:42;97515.09;;;6.34;100.00
10464;BME280;5279;42.048;24.638;2023-03-04T02:25:15;97516.53;;;6.27;100.00
10464;BME280;5279;42.048;24.638;2023-03-04T02:27:45;97512.22;;;6.37;100.00
10464;BME280;5279;42.048;24.638;2023-03-04T02:30:12;97503.75;;;6.23;100.00
10464;BME280;5279;42.048;24.638;2023-03-04T02:32:39;97504.06;;;6.29;100.00
10464;BME280;5279;42.048;24.638;2023-03-04T02:35:13;97497.16;;;6.28;100.00
10464;BME280;5279;42.048;24.638;2023-03-04T02:37:42;97495.19;;;6.41;100.00
10464;BME280;5279;42.048;24.638;2023-03-04T02:40:13;97494.75;;;6.36;100.00
10464;BME280;5279;42.048;24.638;2023-03-04T02:42:44;97485.91;;;6.37;100.00
10464;BME280;5279;42.048;24.638;2023-03-04T02:45:36;97491.63;;;6.53;100.00
10464;BME280;5279;42.048;24.638;2023-03-04T02:48:04;97489.47;;;6.58;100.00
10464;BME280;5279;42.048;24.638;2023-03-04T02:50:34;97499.50;;;6.65;100.00
10464;BME280;5279;42.048;24.638;2023-03-04T02:53:01;97490.66;;;6.66;100.00
10464;BME280;5279;42.048;24.638;2023-03-04T02:55:28;97491.81;;;6.73;100.00
10464;BME280;5279;42.048;24.638;2023-03-04T02:57:58;97493.00;;;6.80;100.00
10464;BME280;5279;42.048;24.638;2023-03-04T03:00:25;97507.84;;;6.81;100.00
10464;BME280;5279;42.048;24.638;2023-03-04T03:02:52;97509.53;;;6.71;100.00
10464;BME280;5279;42.048;24.638;2023-03-04T03:05:21;97501.88;;;6.68;100.00
10464;BME280;5279;42.048;24.638;2023-03-04T03:07:48;97508.44;;;6.73;100.00
10464;BME280;5279;42.048;24.638;2023-03-04T03:10:15;97507.50;;;6.63;100.00
10464;BME280;5279;42.048;24.638;2023-03-04T03:12:43;97511.22;;;6.72;100.00
10464;BME280;5279;42.048;24.638;2023-03-04T03:15:11;97511.31;;;6.70;100.00
10464;BME280;5279;42.048;24.638;2023-03-04T03:17:38;97514.09;;;6.57;100.00
10464;BME280;5279;42.048;24.638;2023-03-04T03:20:07;97518.63;;;6.67;100.00
10464;BME280;5279;42.048;24.638;2023-03-04T03:22:34;97521.03;;;6.58;100.00
10464;BME280;5279;42.048;24.638;2023-03-04T03:25:00;97512.94;;;6.50;100.00
10464;BME280;5279;42.048;24.638;2023-03-04T03:27:27;97521.28;;;6.55;100.00
10464;BME280;5279;42.048;24.638;2023-03-04T03:29:54;97509.31;;;6.51;100.00
10464;BME280;5279;42.048;24.638;2023-03-04T03:32:22;97515.78;;;6.58;100.00
10464;BME280;5279;42.048;24.638;2023-03-04T03:34:49;97505.25;;;6.58;100.00
10464;BME280;5279;42.048;24.638;2023-03-04T03:37:16;97507.88;;;6.58;100.00
10464;BME280;5279;42.048;24.638;2023-03-04T03:39:49;97507.19;;;6.56;100.00
10464;BME280;5279;42.048;24.638;2023-03-04T03:42:16;97506.81;;;6.50;100.00
10464;BME280;5279;42.048;24.638;2023-03-04T03:44:43;97504.06;;;6.51;100.00
10464;BME280;5279;42.048;24.638;2023-03-04T03:47:09;97509.31;;;6.51;100.00
10464;BME280;5279;42.048;24.638;2023-03-04T03:49:38;97511.00;;;6.52;100.00
10464;BME280;5279;42.048;24.638;2023-03-04T03:52:05;97504.91;;;6.52;100.00
10464;BME280;5279;42.048;24.638;2023-03-04T03:54:32;97504.06;;;6.51;100.00
10464;BME280;5279;42.048;24.638;2023-03-04T03:56:59;97502.41;;;6.50;100.00
10464;BME280;5279;42.048;24.638;2023-03-04T03:59:26;97504.69;;;6.44;100.00
10464;BME280;5279;42.048;24.638;2023-03-04T04:01:53;97503.09;;;6.41;100.00
10464;BME280;5279;42.048;24.638;2023-03-04T04:04:39;97505.03;;;6.39;100.00
10464;BME280;5279;42.048;24.638;2023-03-04T04:07:06;97510.53;;;6.36;100.00
10464;BME280;5279;42.048;24.638;2023-03-04T04:09:33;97508.75;;;6.37;100.00
10464;BME280;5279;42.048;24.638;2023-03-04T04:12:00;97502.63;;;6.36;100.00
10464;BME280;5279;42.048;24.638;2023-03-04T04:14:27;97500.72;;;6.38;100.00
10464;BME280;5279;42.048;24.638;2023-03-04T04:16:54;97507.41;;;6.42;100.00
10464;BME280;5279;42.048;24.638;2023-03-04T04:19:41;97509.09;;;6.43;100.00
10464;BME280;5279;42.048;24.638;2023-03-04T04:22:12;97515.69;;;6.27;100.00
10464;BME280;5279;42.048;24.638;2023-03-04T04:24:39;97509.72;;;6.25;100.00
10464;BME280;5279;42.048;24.638;2023-03-04T04:27:06;97508.88;;;6.24;100.00
10464;BME280;5279;42.048;24.638;2023-03-04T04:29:33;97517.34;;;6.28;100.00
10464;BME280;5279;42.048;24.638;2023-03-04T04:32:00;97522.97;;;6.23;100.00
10464;BME280;5279;42.048;24.638;2023-03-04T04:34:27;97517.59;;;6.25;100.00
10464;BME280;5279;42.048;24.638;2023-03-04T04:36:55;97520.22;;;6.25;100.00
10464;BME280;5279;42.048;24.638;2023-03-04T04:39:22;97522.25;;;6.21;100.00
10464;BME280;5279;42.048;24.638;2023-03-04T04:41:49;97509.81;;;6.12;100.00
10464;BME280;5279;42.048;24.638;2023-03-04T04:44:16;97519.88;;;6.18;100.00
10464;BME280;5279;42.048;24.638;2023-03-04T04:46:43;97514.59;;;6.18;100.00
10464;BME280;5279;42.048;24.638;2023-03-04T04:49:10;97517.22;;;6.18;100.00
10464;BME280;5279;42.048;24.638;2023-03-04T04:51:37;97516.53;;;6.16;100.00
10464;BME280;5279;42.048;24.638;2023-03-04T04:54:06;97522.00;;;6.02;100.00
10464;BME280;5279;42.048;24.638;2023-03-04T04:56:33;97522.25;;;5.99;100.00
10464;BME280;5279;42.048;24.638;2023-03-04T04:59:03;97518.81;;;5.75;100.00
10464;BME280;5279;42.048;24.638;2023-03-04T05:01:31;97523.63;;;5.81;100.00
10464;BME280;5279;42.048;24.638;2023-03-04T05:03:58;97521.97;;;5.80;100.00
10464;BME280;5279;42.048;24.638;2023-03-04T05:06:26;97520.75;;;5.73;100.00
10464;BME280;5279;42.048;24.638;2023-03-04T05:08:52;97521.91;;;5.58;100.00
10464;BME280;5279;42.048;24.638;2023-03-04T05:11:21;97522.97;;;5.55;100.00
10464;BME280;5279;42.048;24.638;2023-03-04T05:13:48;97521.91;;;5.58;100.00
10464;BME280;5279;42.048;24.638;2023-03-04T05:16:15;97531.72;;;5.56;100.00
10464;BME280;5279;42.048;24.638;2023-03-04T05:18:42;97535.19;;;5.32;100.00
10464;BME280;5279;42.048;24.638;2023-03-04T05:21:09;97542.16;;;5.44;100.00
10464;BME280;5279;42.048;24.638;2023-03-04T05:23:39;97530.97;;;5.53;100.00
10464;BME280;5279;42.048;24.638;2023-03-04T05:26:08;97529.22;;;5.65;100.00
10464;BME280;5279;42.048;24.638;2023-03-04T05:28:36;97533.78;;;5.74;100.00
10464;BME280;5279;42.048;24.638;2023-03-04T05:31:04;97529.31;;;5.53;100.00
10464;BME280;5279;42.048;24.638;2023-03-04T05:33:31;97534.56;;;5.53;100.00
10464;BME280;5279;42.048;24.638;2023-03-04T05:35:58;97544.72;;;5.57;100.00
10464;BME280;5279;42.048;24.638;2023-03-04T05:38:25;97545.81;;;5.66;100.00
10464;BME280;5279;42.048;24.638;2023-03-04T05:40:56;97541.78;;;5.73;100.00
10464;BME280;5279;42.048;24.638;2023-03-04T05:43:24;97539.28;;;5.82;100.00
10464;BME280;5279;42.048;24.638;2023-03-04T05:45:54;97545.66;;;5.91;100.00
10464;BME280;5279;42.048;24.638;2023-03-04T05:48:21;97538.38;;;5.94;100.00
10464;BME280;5279;42.048;24.638;2023-03-04T05:50:52;97549.56;;;5.74;100.00
10464;BME280;5279;42.048;24.638;2023-03-04T05:53:20;97543.59;;;5.83;100.00
10464;BME280;5279;42.048;24.638;2023-03-04T05:55:47;97539.56;;;5.90;100.00
10464;BME280;5279;42.048;24.638;2023-03-04T05:58:14;97545.91;;;5.88;100.00
10464;BME280;5279;42.048;24.638;2023-03-04T06:00:41;97538.00;;;5.88;100.00
10464;BME280;5279;42.048;24.638;2023-03-04T06:03:13;97543.97;;;5.90;100.00
10464;BME280;5279;42.048;24.638;2023-03-04T06:05:41;97542.09;;;5.92;100.00
10464;BME280;5279;42.048;24.638;2023-03-04T06:08:10;97544.00;;;6.01;100.00
10464;BME280;5279;42.048;24.638;2023-03-04T06:10:37;97537.78;;;6.02;100.00
10464;BME280;5279;42.048;24.638;2023-03-04T06:13:05;97542.09;;;6.03;100.00
10464;BME280;5279;42.048;24.638;2023-03-04T06:15:32;97556.47;;;6.10;100.00
10464;BME280;5279;42.048;24.638;2023-03-04T06:17:59;97557.06;;;6.14;100.00
10464;BME280;5279;42.048;24.638;2023-03-04T06:20:28;97557.16;;;6.23;100.00
10464;BME280;5279;42.048;24.638;2023-03-04T06:22:55;97560.78;;;6.22;100.00
10464;BME280;5279;42.048;24.638;2023-03-04T06:25:22;97566.75;;;6.35;100.00
10464;BME280;5279;42.048;24.638;2023-03-04T06:27:49;97559.09;;;6.43;100.00
10464;BME280;5279;42.048;24.638;2023-03-04T06:30:16;97567.72;;;6.45;100.00
10464;BME280;5279;42.048;24.638;2023-03-04T06:32:43;97573.94;;;6.55;100.00
10464;BME280;5279;42.048;24.638;2023-03-04T06:35:10;97576.19;;;6.60;100.00
10464;BME280;5279;42.048;24.638;2023-03-04T06:37:42;97579.56;;;6.62;100.00
10464;BME280;5279;42.048;24.638;2023-03-04T06:40:10;97577.75;;;6.74;100.00
10464;BME280;5279;42.048;24.638;2023-03-04T06:42:37;97572.59;;;6.83;100.00
10464;BME280;5279;42.048;24.638;2023-03-04T06:45:05;97577.97;;;6.93;100.00
10464;BME280;5279;42.048;24.638;2023-03-04T06:47:32;97573.25;;;6.96;100.00
10464;BME280;5279;42.048;24.638;2023-03-04T06:49:59;97579.97;;;7.00;100.00
10464;BME280;5279;42.048;24.638;2023-03-04T06:52:31;97582.00;;;7.08;100.00
10464;BME280;5279;42.048;24.638;2023-03-04T06:55:02;97588.22;;;7.07;100.00
10464;BME280;5279;42.048;24.638;2023-03-04T06:57:30;97592.53;;;7.08;100.00
10464;BME280;5279;42.048;24.638;2023-03-04T06:59:57;97592.31;;;7.00;100.00
10464;BME280;5279;42.048;24.638;2023-03-04T07:02:23;97591.59;;;6.98;100.00
10464;BME280;5279;42.048;24.638;2023-03-04T07:04:51;97588.59;;;7.02;100.00
10464;BME280;5279;42.048;24.638;2023-03-04T07:07:17;97593.75;;;7.04;100.00
10464;BME280;5279;42.048;24.638;2023-03-04T09:15:54;97550.44;;;12.40;100.00
10464;BME280;5279;42.048;24.638;2023-03-04T09:18:23;97544.59;;;11.85;100.00
10464;BME280;5279;42.048;24.638;2023-03-04T09:20:50;97545.09;;;12.07;100.00
10464;BME280;5279;42.048;24.638;2023-03-04T09:23:18;97549.56;;;12.32;100.00
10464;BME280;5279;42.048;24.638;2023-03-04T09:25:45;97549.28;;;12.77;100.00
10464;BME280;5279;42.048;24.638;2023-03-04T09:28:14;97544.19;;;12.83;100.00
10464;BME280;5279;42.048;24.638;2023-03-04T09:30:42;97543.03;;;13.28;100.00
10464;BME280;5279;42.048;24.638;2023-03-04T09:33:10;97550.22;;;13.51;100.00
10464;BME280;5279;42.048;24.638;2023-03-04T09:35:38;97544.09;;;13.75;98.40
10464;BME280;5279;42.048;24.638;2023-03-04T09:38:05;97545.09;;;13.58;95.71
10464;BME280;5279;42.048;24.638;2023-03-04T09:40:37;97544.06;;;13.43;99.50
10464;BME280;5279;42.048;24.638;2023-03-04T09:43:12;97535.41;;;13.41;100.00
10464;BME280;5279;42.048;24.638;2023-03-04T09:45:48;97527.09;;;12.52;100.00
10464;BME280;5279;42.048;24.638;2023-03-04T09:48:20;97534.19;;;12.18;100.00
10464;BME280;5279;42.048;24.638;2023-03-04T09:50:59;97547.97;;;11.95;100.00
10464;BME280;5279;42.048;24.638;2023-03-04T09:53:34;97538.38;;;11.77;100.00
10464;BME280;5279;42.048;24.638;2023-03-04T09:56:05;97530.63;;;11.66;100.00
10464;BME280;5279;42.048;24.638;2023-03-04T09:58:45;97529.50;;;11.33;100.00
10464;BME280;5279;42.048;24.638;2023-03-04T10:01:19;97533.72;;;11.08;100.00
10464;BME280;5279;42.048;24.638;2023-03-04T10:03:52;97529.22;;;10.91;100.00
10464;BME280;5279;42.048;24.638;2023-03-04T10:06:21;97529.56;;;10.78;100.00
10464;BME280;5279;42.048;24.638;2023-03-04T10:08:52;97526.41;;;10.65;100.00
10464;BME280;5279;42.048;24.638;2023-03-04T10:11:23;97521.66;;;10.69;100.00
10464;BME280;5279;42.048;24.638;2023-03-04T10:13:55;97524.59;;;10.66;100.00
10464;BME280;5279;42.048;24.638;2023-03-04T10:16:26;97520.44;;;10.63;100.00
10464;BME280;5279;42.048;24.638;2023-03-04T10:19:05;97525.16;;;10.69;100.00
10464;BME280;5279;42.048;24.638;2023-03-04T10:21:38;97527.16;;;10.58;100.00
10464;BME280;5279;42.048;24.638;2023-03-04T10:24:10;97515.44;;;10.60;100.00
10464;BME280;5279;42.048;24.638;2023-03-04T10:26:39;97508.16;;;10.62;100.00
10464;BME280;5279;42.048;24.638;2023-03-04T10:29:08;97511.69;;;10.80;100.00
10464;BME280;5279;42.048;24.638;2023-03-04T10:31:40;97499.69;;;10.76;100.00
10464;BME280;5279;42.048;24.638;2023-03-04T10:34:11;97493.06;;;10.72;100.00
10464;BME280;5279;42.048;24.638;2023-03-04T10:36:46;97493.44;;;10.95;100.00
10464;BME280;5279;42.048;24.638;2023-03-04T10:39:18;97495.38;;;11.03;100.00
10464;BME280;5279;42.048;24.638;2023-03-04T10:41:54;97481.59;;;11.17;100.00
10464;BME280;5279;42.048;24.638;2023-03-04T10:44:22;97485.25;;;11.33;100.00
10464;BME280;5279;42.048;24.638;2023-03-04T10:46:49;97483.22;;;11.53;100.00
10464;BME280;5279;42.048;24.638;2023-03-04T10:49:18;97480.06;;;11.67;100.00
10464;BME280;5279;42.048;24.638;2023-03-04T10:51:46;97471.56;;;11.81;100.00
10464;BME280;5279;42.048;24.638;2023-03-04T10:54:23;97481.53;;;11.87;100.00
10464;BME280;5279;42.048;24.638;2023-03-04T10:56:59;97481.91;;;11.92;100.00
10464;BME280;5279;42.048;24.638;2023-03-04T10:59:45;97470.91;;;12.13;100.00
10464;BME280;5279;42.048;24.638;2023-03-04T11:02:26;97464.72;;;12.72;100.00
10464;BME280;5279;42.048;24.638;2023-03-04T11:05:06;97457.44;;;12.82;100.00
10464;BME280;5279;42.048;24.638;2023-03-04T11:07:38;97459.69;;;13.84;100.00
10464;BME280;5279;42.048;24.638;2023-03-04T11:10:07;97454.44;;;14.39;92.22
10464;BME280;5279;42.048;24.638;2023-03-04T11:12:34;97448.06;;;14.87;90.53
10464;BME280;5279;42.048;24.638;2023-03-04T11:15:02;97447.03;;;14.57;84.59
10464;BME280;5279;42.048;24.638;2023-03-04T11:17:41;97438.44;;;14.39;88.71
10464;BME280;5279;42.048;24.638;2023-03-04T11:20:16;97439.53;;;14.05;93.61
10464;BME280;5279;42.048;24.638;2023-03-04T11:22:45;97438.56;;;13.74;92.55
10464;BME280;5279;42.048;24.638;2023-03-04T11:25:21;97433.44;;;13.16;92.56
10464;BME280;5279;42.048;24.638;2023-03-04T11:27:53;97421.53;;;12.86;95.39
10464;BME280;5279;42.048;24.638;2023-03-04T11:30:30;97418.22;;;12.84;98.44
10464;BME280;5279;42.048;24.638;2023-03-04T11:33:08;97418.50;;;12.65;100.00
10464;BME280;5279;42.048;24.638;2023-03-04T11:35:45;97412.84;;;12.60;100.00
10464;BME280;5279;42.048;24.638;2023-03-04T11:38:18;97405.44;;;12.38;100.00
10464;BME280;5279;42.048;24.638;2023-03-04T11:40:49;97404.25;;;12.32;100.00
10464;BME280;5279;42.048;24.638;2023-03-04T11:43:21;97402.53;;;12.57;100.00
10464;BME280;5279;42.048;24.638;2023-03-04T11:48:53;97395.91;;;12.61;92.55
10464;BME280;5279;42.048;24.638;2023-03-04T11:51:31;97397.28;;;12.81;91.94
10464;BME280;5279;42.048;24.638;2023-03-04T11:54:14;97401.66;;;13.14;91.57
10464;BME280;5279;42.048;24.638;2023-03-04T11:56:43;97389.88;;;13.25;85.83
10464;BME280;5279;42.048;24.638;2023-03-04T11:59:34;97392.66;;;13.72;82.13
10464;BME280;5279;42.048;24.638;2023-03-04T12:02:15;97395.97;;;13.74;77.92
10464;BME280;5279;42.048;24.638;2023-03-04T12:10:36;97387.00;;;12.94;79.92
10464;BME280;5279;42.048;24.638;2023-03-04T12:13:27;97378.19;;;12.94;81.53
10464;BME280;5279;42.048;24.638;2023-03-04T12:16:10;97386.34;;;13.00;83.52
10464;BME280;5279;42.048;24.638;2023-03-04T12:18:53;97379.50;;;12.82;82.84
10464;BME280;5279;42.048;24.638;2023-03-04T12:21:44;97367.69;;;12.76;83.78
10464;BME280;5279;42.048;24.638;2023-03-04T12:24:33;97369.78;;;12.48;84.90
10464;BME280;5279;42.048;24.638;2023-03-04T12:27:14;97364.50;;;12.65;87.60
10464;BME280;5279;42.048;24.638;2023-03-04T12:29:47;97361.31;;;12.53;85.72
10464;BME280;5279;42.048;24.638;2023-03-04T12:32:22;97350.81;;;12.35;86.89
10464;BME280;5279;42.048;24.638;2023-03-04T12:35:03;97357.34;;;12.49;93.16
10464;BME280;5279;42.048;24.638;2023-03-04T12:38:02;97360.47;;;12.44;87.69
10464;BME280;5279;42.048;24.638;2023-03-04T12:40:42;97355.34;;;12.59;90.70
10464;BME280;5279;42.048;24.638;2023-03-04T12:43:29;97348.38;;;12.66;88.70
10464;BME280;5279;42.048;24.638;2023-03-04T12:46:05;97356.38;;;12.74;85.06
10464;BME280;5279;42.048;24.638;2023-03-04T12:48:40;97353.06;;;12.80;87.89
10464;BME280;5279;42.048;24.638;2023-03-04T12:51:20;97348.22;;;12.68;83.45
10464;BME280;5279;42.048;24.638;2023-03-04T12:53:59;97341.34;;;12.41;86.10
10464;BME280;5279;42.048;24.638;2023-03-04T12:56:35;97339.06;;;12.46;88.93
10464;BME280;5279;42.048;24.638;2023-03-04T12:59:05;97342.38;;;12.48;87.87
10464;BME280;5279;42.048;24.638;2023-03-04T13:01:37;97339.34;;;12.35;86.65
10464;BME280;5279;42.048;24.638;2023-03-04T13:04:10;97327.88;;;12.34;85.66
10464;BME280;5279;42.048;24.638;2023-03-04T13:06:45;97332.66;;;12.15;90.41
10464;BME280;5279;42.048;24.638;2023-03-04T13:09:20;97324.53;;;12.24;90.67
10464;BME280;5279;42.048;24.638;2023-03-04T13:11:53;97325.97;;;12.11;91.38
10464;BME280;5279;42.048;24.638;2023-03-04T13:14:26;97325.00;;;12.12;92.04
10464;BME280;5279;42.048;24.638;2023-03-04T13:16:55;97326.59;;;11.96;95.09
10464;BME280;5279;42.048;24.638;2023-03-04T13:19:49;97320.25;;;11.89;94.78
10464;BME280;5279;42.048;24.638;2023-03-04T13:22:34;97318.41;;;11.56;97.04
10464;BME280;5279;42.048;24.638;2023-03-04T13:25:36;97318.06;;;11.51;99.74
10464;BME280;5279;42.048;24.638;2023-03-04T13:28:21;97314.34;;;11.44;99.97
10464;BME280;5279;42.048;24.638;2023-03-04T13:31:15;97307.75;;;11.48;100.00
10464;BME280;5279;42.048;24.638;2023-03-04T13:34:03;97306.75;;;11.49;100.00
10464;BME280;5279;42.048;24.638;2023-03-04T13:36:33;97309.09;;;11.52;100.00
10464;BME280;5279;42.048;24.638;2023-03-04T13:39:03;97314.66;;;11.41;100.00
10464;BME280;5279;42.048;24.638;2023-03-04T13:41:48;97307.50;;;11.33;100.00
10464;BME280;5279;42.048;24.638;2023-03-04T13:44:34;97307.50;;;11.08;98.04
10464;BME280;5279;42.048;24.638;2023-03-04T13:47:15;97301.03;;;11.10;100.00
10464;BME280;5279;42.048;24.638;2023-03-04T13:49:42;97297.19;;;11.05;100.00
10464;BME280;5279;42.048;24.638;2023-03-04T13:55:34;97286.91;;;11.27;100.00
10464;BME280;5279;42.048;24.638;2023-03-04T13:58:02;97283.78;;;11.32;100.00
10464;BME280;5279;42.048;24.638;2023-03-04T14:00:46;97287.63;;;11.37;98.92
10464;BME280;5279;42.048;24.638;2023-03-04T14:03:19;97282.16;;;11.39;99.78
10464;BME280;5279;42.048;24.638;2023-03-04T14:05:46;97280.38;;;11.47;97.44
10464;BME280;5279;42.048;24.638;2023-03-04T14:08:17;97278.88;;;11.45;98.16
10464;BME280;5279;42.048;24.638;2023-03-04T14:10:53;97274.34;;;11.37;97.08
10464;BME280;5279;42.048;24.638;2023-03-04T14:13:20;97273.16;;;11.32;97.39
10464;BME280;5279;42.048;24.638;2023-03-04T14:15:53;97273.53;;;11.37;96.06
10464;BME280;5279;42.048;24.638;2023-03-04T14:18:22;97266.41;;;11.37;100.00
10464;BME280;5279;42.048;24.638;2023-03-04T14:20:50;97263.91;;;11.36;100.00
10464;BME280;5279;42.048;24.638;2023-03-04T14:23:25;97258.63;;;11.36;100.00
10464;BME280;5279;42.048;24.638;2023-03-04T14:26:05;97266.91;;;11.41;100.00
10464;BME280;5279;42.048;24.638;2023-03-04T14:28:33;97266.16;;;11.23;100.00
10464;BME280;5279;42.048;24.638;2023-03-04T14:31:15;97259.03;;;11.23;100.00
10464;BME280;5279;42.048;24.638;2023-03-04T14:33:46;97260.13;;;11.13;100.00
10464;BME280;5279;42.048;24.638;2023-03-04T14:36:18;97261.97;;;11.12;100.00
10464;BME280;5279;42.048;24.638;2023-03-04T14:38:51;97251.66;;;11.09;100.00
10464;BME280;5279;42.048;24.638;2023-03-04T14:41:23;97240.75;;;11.12;100.00
10464;BME280;5279;42.048;24.638;2023-03-04T14:43:57;97249.06;;;11.17;100.00
10464;BME280;5279;42.048;24.638;2023-03-04T14:46:29;97246.75;;;11.22;100.00
10464;BME280;5279;42.048;24.638;2023-03-04T14:48:59;97250.94;;;10.99;100.00
10464;BME280;5279;42.048;24.638;2023-03-04T14:51:41;97242.50;;;11.04;100.00
10464;BME280;5279;42.048;24.638;2023-03-04T14:54:31;97237.41;;;11.10;100.00
10464;BME280;5279;42.048;24.638;2023-03-04T14:57:00;97233.97;;;11.18;100.00
10464;BME280;5279;42.048;24.638;2023-03-04T14:59:32;97239.81;;;11.21;100.00
10464;BME280;5279;42.048;24.638;2023-03-04T15:02:24;97229.06;;;11.31;100.00
10464;BME280;5279;42.048;24.638;2023-03-04T15:04:58;97224.47;;;11.41;100.00
10464;BME280;5279;42.048;24.638;2023-03-04T15:07:30;97222.16;;;11.46;100.00
10464;BME280;5279;42.048;24.638;2023-03-04T15:09:59;97218.72;;;11.45;100.00
10464;BME280;5279;42.048;24.638;2023-03-04T15:12:29;97219.88;;;11.51;100.00
10464;BME280;5279;42.048;24.638;2023-03-04T15:14:58;97221.53;;;11.52;100.00
10464;BME280;5279;42.048;24.638;2023-03-04T15:17:32;97214.56;;;11.51;100.00
10464;BME280;5279;42.048;24.638;2023-03-04T15:20:23;97211.50;;;11.30;100.00
10464;BME280;5279;42.048;24.638;2023-03-04T15:23:11;97217.66;;;11.30;100.00
10464;BME280;5279;42.048;24.638;2023-03-04T15:25:39;97209.81;;;11.21;100.00
10464;BME280;5279;42.048;24.638;2023-03-04T15:28:12;97211.09;;;11.17;100.00
10464;BME280;5279;42.048;24.638;2023-03-04T15:30:41;97205.59;;;11.10;100.00
10464;BME280;5279;42.048;24.638;2023-03-04T15:33:09;97204.09;;;11.08;100.00
10464;BME280;5279;42.048;24.638;2023-03-04T15:35:38;97196.03;;;10.91;100.00
10464;BME280;5279;42.048;24.638;2023-03-04T15:38:07;97198.00;;;10.89;100.00